Time;durP1;ratioP1;P1;durP2;ratioP2;P2;SDS_P1;SDS_P2;PMS_P1;PMS_P2;Temp;Humidity;BMP_temperature;BMP_pressure;BME280_temperature;BME280_humidity;BME280_pressure;Samples;Min_cycle;Max_cycle;Signal;HPM_P1;HPM_P2
2023/08/25 00:00:24;;;;;;;14.18;11.82;;;;;;;19.28;100.00;100815.47;5283581;28;20528;-64
2023/08/25 00:02:55;;;;;;;16.05;12.73;;;;;;;19.13;100.00;100814.50;5290523;28;20048;-65
2023/08/25 00:05:27;;;;;;;15.75;12.88;;;;;;;19.06;100.00;100816.22;5289218;28;20054;-64
2023/08/25 00:07:58;;;;;;;15.73;12.75;;;;;;;19.04;100.00;100826.38;5289429;28;20076;-64
2023/08/25 00:10:29;;;;;;;16.55;13.60;;;;;;;19.00;100.00;100824.03;5283107;28;20165;-64
2023/08/25 00:13:01;;;;;;;15.20;13.55;;;;;;;19.13;100.00;100819.94;5285617;28;20418;-64
2023/08/25 00:15:32;;;;;;;15.82;13.45;;;;;;;19.06;100.00;100821.63;5284137;28;20028;-64
2023/08/25 00:18:05;;;;;;;16.48;13.90;;;;;;;19.18;100.00;100821.09;5283468;28;20025;-64
2023/08/25 00:20:37;;;;;;;16.15;14.43;;;;;;;19.24;100.00;100826.84;5284835;28;20036;-64
2023/08/25 00:23:08;;;;;;;14.63;13.10;;;;;;;19.24;100.00;100830.38;5286579;28;20024;-64
2023/08/25 00:25:44;;;;;;;17.25;14.25;;;;;;;19.11;100.00;100827.38;5284763;28;20402;-64
2023/08/25 00:28:16;;;;;;;14.93;13.45;;;;;;;19.17;100.00;100830.22;5281855;28;20024;-64
2023/08/25 00:30:48;;;;;;;14.85;12.95;;;;;;;19.17;100.00;100818.56;5284226;28;20036;-64
2023/08/25 00:33:19;;;;;;;21.40;14.07;;;;;;;19.11;100.00;100825.50;5284579;28;20045;-64
2023/08/25 00:35:51;;;;;;;15.35;13.52;;;;;;;19.08;100.00;100835.81;5280829;28;20124;-64
2023/08/25 00:38:24;;;;;;;14.90;13.40;;;;;;;19.09;100.00;100835.66;5283189;28;20074;-64
2023/08/25 00:40:55;;;;;;;16.77;14.23;;;;;;;18.96;100.00;100830.78;5291195;28;20019;-64
2023/08/25 00:43:26;;;;;;;15.45;13.40;;;;;;;19.12;100.00;100827.22;5290980;28;20043;-64
2023/08/25 00:45:59;;;;;;;14.68;13.07;;;;;;;19.11;100.00;100824.66;5286419;28;20516;-64
2023/08/25 00:48:31;;;;;;;15.43;13.82;;;;;;;18.96;100.00;100822.66;5285335;28;20039;-64
2023/08/25 00:51:04;;;;;;;18.05;13.82;;;;;;;18.91;100.00;100825.06;5286889;28;20024;-64
2023/08/25 00:53:38;;;;;;;15.90;14.10;;;;;;;18.92;100.00;100825.91;5290962;28;20035;-64
2023/08/25 00:56:11;;;;;;;19.77;14.82;;;;;;;18.94;100.00;100821.16;5290133;28;20481;-64
2023/08/25 00:58:44;;;;;;;16.40;13.13;;;;;;;18.99;100.00;100821.50;5292326;28;20027;-64
2023/08/25 01:01:17;;;;;;;15.65;13.98;;;;;;;18.99;100.00;100816.91;5285064;28;20541;-64
2023/08/25 01:03:49;;;;;;;15.52;13.95;;;;;;;19.03;100.00;100819.28;5285013;28;20035;-64
2023/08/25 01:06:20;;;;;;;17.00;14.70;;;;;;;18.99;100.00;100822.34;5284381;28;20040;-64
2023/08/25 01:08:53;;;;;;;16.55;14.48;;;;;;;18.98;100.00;100822.50;5283014;28;20040;-64
2023/08/25 01:11:41;;;;;;;15.68;13.98;;;;;;;18.94;100.00;100827.41;5278957;28;20409;-64
2023/08/25 01:14:23;;;;;;;15.85;14.25;;;;;;;19.02;100.00;100820.28;5284572;28;20114;-64
2023/08/25 01:17:04;;;;;;;16.15;14.45;;;;;;;18.97;100.00;100823.53;5279666;28;20050;-64
2023/08/25 01:19:39;;;;;;;16.17;14.48;;;;;;;18.97;100.00;100815.41;5281189;28;20024;-64
2023/08/25 01:22:21;;;;;;;15.52;13.90;;;;;;;19.00;100.00;100813.22;5281202;28;20397;-64
2023/08/25 01:25:02;;;;;;;18.73;14.00;;;;;;;18.92;100.00;100809.69;5280326;28;20033;-64
2023/08/25 01:27:34;;;;;;;15.70;14.02;;;;;;;18.93;100.00;100808.69;5282397;28;20036;-64
2023/08/25 01:30:06;;;;;;;15.45;13.85;;;;;;;18.91;100.00;100808.00;5286023;28;20032;-64
2023/08/25 01:32:38;;;;;;;15.45;13.43;;;;;;;18.94;100.00;100805.78;5283793;28;20035;-64
2023/08/25 01:35:14;;;;;;;15.55;13.90;;;;;;;18.96;100.00;100802.91;5277698;28;20027;-64
2023/08/25 01:38:11;;;;;;;14.93;13.35;;;;;;;19.07;100.00;100801.69;5280077;28;20099;-64
2023/08/25 01:41:27;;;;;;;14.90;13.40;;;;;;;19.16;100.00;100808.78;5286010;28;20020;-64
2023/08/25 01:44:02;;;;;;;16.17;13.52;;;;;;;18.94;100.00;100796.81;5283179;28;20157;-65
2023/08/25 01:46:36;;;;;;;16.52;14.02;;;;;;;18.94;100.00;100797.66;5283659;28;20061;-64
2023/08/25 01:49:10;;;;;;;17.95;14.30;;;;;;;18.94;100.00;100796.81;5289459;28;20035;-65
2023/08/25 01:51:42;;;;;;;16.60;15.00;;;;;;;18.97;100.00;100801.91;5282316;27;20034;-64
2023/08/25 01:54:14;;;;;;;19.55;16.40;;;;;;;19.03;100.00;100801.19;5285832;28;20039;-64
2023/08/25 01:56:45;;;;;;;15.27;13.75;;;;;;;19.10;100.00;100798.63;5290639;28;20572;-64
2023/08/25 01:59:16;;;;;;;19.95;17.95;;;;;;;19.05;100.00;100784.81;5285037;28;20469;-64
2023/08/25 02:01:48;;;;;;;18.02;16.10;;;;;;;19.14;100.00;100792.72;5282327;28;20078;-64
2023/08/25 02:04:20;;;;;;;20.33;17.73;;;;;;;19.15;100.00;100778.16;5290070;28;20036;-64
2023/08/25 02:06:51;;;;;;;18.90;16.95;;;;;;;19.27;100.00;100786.75;5288174;28;20024;-64
2023/08/25 02:09:23;;;;;;;20.60;17.17;;;;;;;19.23;100.00;100784.56;5281144;28;20020;-64
2023/08/25 02:11:55;;;;;;;20.25;18.15;;;;;;;19.23;100.00;100788.09;5281099;28;20564;-64
2023/08/25 02:14:26;;;;;;;23.50;19.02;;;;;;;19.23;100.00;100784.56;5283030;28;20043;-64
2023/08/25 02:16:58;;;;;;;23.20;20.70;;;;;;;19.27;100.00;100792.16;5286770;28;20023;-64
2023/08/25 02:19:29;;;;;;;22.05;19.77;;;;;;;19.27;100.00;100780.47;5283247;28;20027;-64
2023/08/25 02:22:00;;;;;;;21.70;19.50;;;;;;;19.18;100.00;100777.81;5279829;28;20488;-64
2023/08/25 02:24:32;;;;;;;22.38;20.08;;;;;;;19.29;100.00;100782.00;5281017;28;20397;-64
2023/08/25 02:27:03;;;;;;;22.20;19.95;;;;;;;19.30;100.00;100778.25;5281628;28;20039;-64
2023/08/25 02:29:35;;;;;;;21.88;19.60;;;;;;;19.38;100.00;100777.38;5282541;28;20031;-64
2023/08/25 02:32:06;;;;;;;20.55;18.55;;;;;;;19.36;100.00;100776.72;5286290;28;20038;-64
2023/08/25 02:34:37;;;;;;;21.73;19.45;;;;;;;19.38;100.00;100766.56;5274104;28;20032;-64
2023/08/25 02:37:09;;;;;;;22.80;20.48;;;;;;;19.40;100.00;100765.34;5282309;28;20123;-64
2023/08/25 02:39:40;;;;;;;22.98;20.42;;;;;;;19.31;100.00;100754.75;5281518;28;20036;-64
2023/08/25 02:42:12;;;;;;;21.92;19.77;;;;;;;19.31;100.00;100739.38;5290477;28;20042;-64
2023/08/25 02:44:43;;;;;;;22.48;20.33;;;;;;;19.38;100.00;100745.75;5286024;28;20036;-64
2023/08/25 02:47:15;;;;;;;22.67;20.05;;;;;;;19.39;100.00;100746.63;5287002;28;20051;-64
2023/08/25 02:49:46;;;;;;;23.45;21.05;;;;;;;19.45;100.00;100747.78;5283275;28;20462;-64
2023/08/25 02:52:18;;;;;;;23.38;20.90;;;;;;;19.45;100.00;100742.34;5289112;28;20032;-64
2023/08/25 02:54:49;;;;;;;23.60;21.15;;;;;;;19.46;100.00;100734.03;5288183;28;20520;-65
2023/08/25 02:57:20;;;;;;;23.77;20.27;;;;;;;19.33;100.00;100739.19;5287056;28;20028;-64
2023/08/25 02:59:52;;;;;;;22.65;20.25;;;;;;;19.35;100.00;100734.47;5282172;28;20089;-64
2023/08/25 03:02:23;;;;;;;23.17;20.77;;;;;;;19.43;100.00;100741.69;5285504;28;20049;-62
2023/08/25 03:04:54;;;;;;;24.48;21.52;;;;;;;19.36;100.00;100728.03;5286723;28;20120;-64
2023/08/25 03:07:26;;;;;;;23.20;20.83;;;;;;;19.39;100.00;100730.38;5287325;28;20491;-64
2023/08/25 03:09:57;;;;;;;24.50;21.90;;;;;;;19.41;100.00;100717.50;5285539;28;20077;-64
2023/08/25 03:12:28;;;;;;;23.13;20.70;;;;;;;19.45;100.00;100718.00;5290090;28;20040;-64
2023/08/25 03:15:00;;;;;;;26.85;21.08;;;;;;;19.42;100.00;100711.06;5287270;28;20089;-64
2023/08/25 03:17:31;;;;;;;26.15;23.30;;;;;;;19.33;100.00;100707.59;5292502;28;20474;-64
2023/08/25 03:20:04;;;;;;;26.77;23.90;;;;;;;19.29;100.00;100708.97;5291362;28;20016;-64
2023/08/25 03:22:35;;;;;;;24.55;22.05;;;;;;;19.38;100.00;100707.88;5291118;28;20032;-64
2023/08/25 03:25:07;;;;;;;27.63;23.00;;;;;;;19.36;100.00;100704.50;5285998;28;20419;-64
2023/08/25 03:27:39;;;;;;;25.17;22.58;;;;;;;19.46;100.00;100703.44;5292379;28;20043;-64
2023/08/25 03:30:11;;;;;;;24.90;22.33;;;;;;;19.44;100.00;100702.78;5275849;28;20386;-64
2023/08/25 03:32:43;;;;;;;26.02;23.27;;;;;;;19.39;100.00;100703.31;5288946;28;20489;-64
2023/08/25 03:35:14;;;;;;;25.55;22.95;;;;;;;19.51;100.00;100695.63;5290884;28;20032;-64
2023/08/25 03:37:46;;;;;;;24.63;22.05;;;;;;;19.44;100.00;100700.06;5290264;28;20024;-64
2023/08/25 03:40:20;;;;;;;23.95;21.65;;;;;;;19.49;100.00;100697.69;5289537;28;20038;-64
2023/08/25 03:42:51;;;;;;;23.90;21.42;;;;;;;19.54;100.00;100688.00;5291836;28;20034;-64
2023/08/25 03:45:23;;;;;;;24.65;21.95;;;;;;;19.53;100.00;100677.34;5290690;28;20482;-65
2023/08/25 03:47:55;;;;;;;24.63;22.00;;;;;;;19.53;100.00;100680.88;5291374;28;20401;-64
2023/08/25 03:50:26;;;;;;;24.25;21.73;;;;;;;19.55;100.00;100678.00;5287272;28;20027;-64
2023/08/25 03:52:57;;;;;;;23.42;21.10;;;;;;;19.63;100.00;100686.06;5281640;28;20394;-64
2023/08/25 03:55:29;;;;;;;23.45;21.05;;;;;;;19.62;100.00;100680.81;5290788;28;20054;-64
2023/08/25 03:58:00;;;;;;;24.20;21.77;;;;;;;19.70;100.00;100684.31;5284885;28;20017;-64
2023/08/25 04:00:32;;;;;;;24.30;21.73;;;;;;;19.58;100.00;100681.19;5285395;28;20023;-64
2023/08/25 04:03:04;;;;;;;24.33;21.73;;;;;;;19.68;100.00;100682.81;5281942;28;20048;-64
2023/08/25 04:05:36;;;;;;;24.70;22.20;;;;;;;19.55;100.00;100678.84;5284003;28;20122;-64
2023/08/25 04:08:07;;;;;;;24.95;22.25;;;;;;;19.61;100.00;100673.75;5288903;28;21214;-64
2023/08/25 04:10:42;;;;;;;26.70;23.75;;;;;;;19.56;100.00;100672.41;5286510;28;20398;-64
2023/08/25 04:13:14;;;;;;;24.45;21.90;;;;;;;19.61;100.00;100676.44;5283350;28;20104;-64
2023/08/25 04:15:53;;;;;;;25.70;23.00;;;;;;;19.64;100.00;100676.94;5282963;28;20456;-64
2023/08/25 04:18:25;;;;;;;25.90;22.13;;;;;;;19.58;100.00;100667.66;5292960;28;20028;-64
2023/08/25 04:20:56;;;;;;;25.45;22.75;;;;;;;19.62;100.00;100668.16;5289117;28;20027;-64
2023/08/25 04:23:28;;;;;;;24.90;22.33;;;;;;;19.57;100.00;100665.97;5287073;28;20032;-64
2023/08/25 04:26:00;;;;;;;24.92;22.33;;;;;;;19.56;100.00;100660.75;5281818;28;20094;-64
2023/08/25 04:28:31;;;;;;;24.77;22.27;;;;;;;19.59;100.00;100665.78;5286260;28;20028;-64
2023/08/25 04:31:02;;;;;;;25.13;22.58;;;;;;;19.54;100.00;100660.94;5277672;28;20035;-64
2023/08/25 04:33:34;;;;;;;25.20;22.52;;;;;;;19.56;100.00;100668.88;5282974;28;20095;-64
2023/08/25 04:36:05;;;;;;;24.13;21.67;;;;;;;19.63;100.00;100667.09;5283470;28;20066;-64
2023/08/25 04:38:37;;;;;;;25.73;23.13;;;;;;;19.59;100.00;100674.75;5284173;28;20036;-64
2023/08/25 04:41:08;;;;;;;23.85;21.33;;;;;;;19.53;100.00;100678.19;5282315;28;20044;-64
2023/08/25 04:43:40;;;;;;;23.17;20.80;;;;;;;19.60;100.00;100678.31;5281850;28;20121;-64
2023/08/25 04:46:12;;;;;;;23.95;20.90;;;;;;;19.53;100.00;100683.59;5285333;28;20063;-64
2023/08/25 04:48:46;;;;;;;23.95;21.55;;;;;;;19.56;100.00;100685.13;5282800;28;20028;-64
2023/08/25 04:51:17;;;;;;;23.58;21.17;;;;;;;19.58;100.00;100669.53;5282061;28;20034;-64
2023/08/25 04:53:48;;;;;;;24.27;21.67;;;;;;;19.54;100.00;100673.59;5285270;28;21194;-64
2023/08/25 04:56:20;;;;;;;23.90;21.40;;;;;;;19.61;100.00;100669.16;5279836;28;20046;-64
2023/08/25 04:58:52;;;;;;;24.52;21.92;;;;;;;19.66;100.00;100664.06;5283280;28;20394;-64
2023/08/25 05:01:23;;;;;;;25.58;22.23;;;;;;;19.57;100.00;100657.00;5283323;28;20114;-65
2023/08/25 05:03:55;;;;;;;23.85;21.35;;;;;;;19.66;100.00;100653.22;5283799;28;20028;-64
2023/08/25 05:06:26;;;;;;;23.55;21.02;;;;;;;19.66;100.00;100645.09;5290179;28;20024;-64
2023/08/25 05:08:58;;;;;;;25.10;22.50;;;;;;;19.69;100.00;100646.59;5280404;28;20043;-64
2023/08/25 05:11:29;;;;;;;23.25;20.85;;;;;;;19.71;100.00;100637.28;5288023;28;20759;-64
2023/08/25 05:14:00;;;;;;;23.33;20.83;;;;;;;19.72;100.00;100654.41;5292989;28;20111;-64
2023/08/25 05:16:32;;;;;;;23.50;21.20;;;;;;;19.67;100.00;100651.34;5284002;28;20052;-64
2023/08/25 05:19:03;;;;;;;22.75;20.35;;;;;;;19.64;100.00;100649.88;5280294;28;20039;-64
2023/08/25 05:21:35;;;;;;;23.00;20.58;;;;;;;19.70;100.00;100651.84;5280278;28;20032;-64
2023/08/25 05:24:24;;;;;;;21.75;19.60;;;;;;;19.70;100.00;100657.25;5286713;28;20024;-64
2023/08/25 05:26:55;;;;;;;23.60;21.10;;;;;;;19.56;100.00;100648.06;5279260;28;20036;-64
2023/08/25 05:29:28;;;;;;;22.17;19.90;;;;;;;19.59;100.00;100655.81;5295060;28;20108;-64
2023/08/25 05:31:59;;;;;;;22.35;20.08;;;;;;;19.55;100.00;100664.47;5289165;28;20478;-64
2023/08/25 05:34:31;;;;;;;22.33;19.98;;;;;;;19.61;100.00;100671.03;5282928;28;20028;-64
2023/08/25 05:37:02;;;;;;;22.20;19.90;;;;;;;19.61;100.00;100650.22;5287827;28;20027;-64
2023/08/25 05:39:34;;;;;;;21.70;19.38;;;;;;;19.63;100.00;100644.63;5290085;28;20109;-64
2023/08/25 05:42:07;;;;;;;22.02;17.98;;;;;;;19.72;100.00;100648.97;5294869;28;20844;-64
2023/08/25 05:44:39;;;;;;;19.67;16.63;;;;;;;19.88;100.00;100645.28;5290152;28;20496;-64
2023/08/25 05:47:10;;;;;;;19.38;16.55;;;;;;;19.86;100.00;100644.63;5292033;28;20114;-64
2023/08/25 05:49:42;;;;;;;18.30;15.68;;;;;;;19.83;100.00;100637.72;5289787;28;20351;-64
2023/08/25 05:52:13;;;;;;;19.02;15.15;;;;;;;19.80;100.00;100637.25;5292813;28;20048;-64
2023/08/25 05:54:44;;;;;;;15.73;14.13;;;;;;;19.90;100.00;100625.09;5284703;28;20452;-64
2023/08/25 05:57:16;;;;;;;15.93;14.23;;;;;;;19.86;100.00;100621.09;5290620;28;20505;-64
2023/08/25 05:59:47;;;;;;;14.93;12.75;;;;;;;19.92;100.00;100633.06;5289066;28;20102;-64
2023/08/25 06:02:19;;;;;;;13.48;11.95;;;;;;;20.04;100.00;100637.00;5290429;28;20497;-64
2023/08/25 06:04:50;;;;;;;13.18;10.73;;;;;;;19.83;100.00;100624.19;5288599;28;20043;-65
2023/08/25 06:07:22;;;;;;;12.48;9.50;;;;;;;19.82;100.00;100614.38;5289536;28;20050;-64
2023/08/25 06:09:53;;;;;;;11.45;9.55;;;;;;;19.75;100.00;100606.16;5290665;28;20479;-65
2023/08/25 06:12:24;;;;;;;10.98;9.55;;;;;;;19.74;100.00;100618.00;5290649;28;20032;-64
2023/08/25 06:14:56;;;;;;;13.80;9.45;;;;;;;19.74;100.00;100618.00;5288535;28;20028;-64
2023/08/25 06:17:27;;;;;;;13.55;10.55;;;;;;;19.78;100.00;100622.00;5291409;28;20034;-65
2023/08/25 06:19:58;;;;;;;11.73;10.13;;;;;;;19.77;100.00;100624.91;5287901;28;20648;-65
2023/08/25 06:22:30;;;;;;;15.82;10.80;;;;;;;19.71;100.00;100629.16;5289673;28;20066;-64
2023/08/25 06:25:01;;;;;;;13.63;10.20;;;;;;;19.71;100.00;100628.31;5292612;28;20032;-64
2023/08/25 06:27:33;;;;;;;13.65;10.30;;;;;;;19.77;100.00;100633.00;5288623;28;20031;-64
2023/08/25 06:30:05;;;;;;;12.50;10.20;;;;;;;19.81;100.00;100655.16;5289724;28;20474;-64
2023/08/25 06:32:36;;;;;;;12.77;10.38;;;;;;;19.72;100.00;100646.28;5292000;28;20028;-65
2023/08/25 06:35:08;;;;;;;12.15;10.45;;;;;;;19.69;100.00;100654.72;5292383;28;20477;-65
2023/08/25 06:37:39;;;;;;;13.27;10.10;;;;;;;19.65;100.00;100643.41;5291766;28;20034;-64
2023/08/25 06:40:11;;;;;;;11.73;9.90;;;;;;;19.64;100.00;100635.50;5289415;28;20028;-64
2023/08/25 06:42:42;;;;;;;12.20;10.25;;;;;;;19.72;100.00;100616.50;5291433;28;20517;-64
2023/08/25 06:45:14;;;;;;;15.15;10.15;;;;;;;19.59;100.00;100622.50;5290554;28;20383;-64
2023/08/25 06:47:49;;;;;;;13.63;9.57;;;;;;;19.50;100.00;100637.09;5290301;28;20032;-64
2023/08/25 06:50:25;;;;;;;14.23;10.20;;;;;;;19.41;100.00;100630.94;5288838;28;20019;-64
2023/08/25 06:52:56;;;;;;;15.32;10.57;;;;;;;19.36;100.00;100617.94;5290109;28;20024;-64
2023/08/25 06:55:28;;;;;;;15.65;10.50;;;;;;;19.44;100.00;100619.72;5294181;28;20496;-63
2023/08/25 06:57:59;;;;;;;14.38;10.55;;;;;;;19.50;100.00;100597.38;5290994;28;20036;-64
2023/08/25 07:00:30;;;;;;;12.90;10.73;;;;;;;19.59;100.00;100568.38;5293320;28;20020;-65
2023/08/25 07:03:03;;;;;;;13.13;10.45;;;;;;;19.51;100.00;100561.16;5289046;28;21056;-64
2023/08/25 07:05:38;;;;;;;15.05;10.55;;;;;;;19.47;100.00;100572.53;5291181;28;20424;-64
2023/08/25 07:08:09;;;;;;;13.05;10.98;;;;;;;19.54;100.00;100587.00;5292938;28;20032;-64
2023/08/25 07:10:44;;;;;;;14.05;11.02;;;;;;;19.49;100.00;100590.28;5294462;28;20541;-64
2023/08/25 07:13:16;;;;;;;14.00;11.70;;;;;;;19.53;100.00;100582.63;5293930;28;20416;-65
2023/08/25 07:15:47;;;;;;;18.70;14.27;;;;;;;19.40;100.00;100564.28;5294184;28;20023;-64
2023/08/25 07:18:18;;;;;;;18.27;13.80;;;;;;;19.53;100.00;100569.94;5294726;28;20066;-65
2023/08/25 07:20:50;;;;;;;16.80;14.15;;;;;;;19.50;100.00;100591.97;5294971;28;20318;-65
2023/08/25 07:23:22;;;;;;;16.40;13.82;;;;;;;19.40;100.00;100657.13;5295569;28;20139;-67
2023/08/25 07:25:53;;;;;;;22.63;15.75;;;;;;;19.33;100.00;100728.38;5292525;28;20032;-65
2023/08/25 07:28:25;;;;;;;44.38;17.30;;;;;;;19.24;100.00;100724.88;5295342;28;20031;-72
2023/08/25 07:30:56;;;;;;;40.80;14.65;;;;;;;19.12;100.00;100643.28;5289568;28;20032;-71
2023/08/25 07:33:28;;;;;;;38.05;16.10;;;;;;;19.10;100.00;100618.28;5292875;28;20023;-70
2023/08/25 07:36:02;;;;;;;40.20;16.63;;;;;;;19.12;100.00;100642.44;5289103;28;20561;-70
2023/08/25 07:38:33;;;;;;;105.25;26.63;;;;;;;19.14;100.00;100651.25;5288626;28;20040;-69
2023/08/25 07:41:05;;;;;;;31.73;16.92;;;;;;;19.10;100.00;100658.00;5291468;28;20031;-69
2023/08/25 07:43:36;;;;;;;30.33;16.50;;;;;;;19.19;100.00;100670.47;5287622;28;20028;-69
2023/08/25 07:46:08;;;;;;;118.55;28.38;;;;;;;19.21;100.00;100668.41;5292564;28;20024;-68
2023/08/25 07:48:40;;;;;;;148.82;35.42;;;;;;;19.24;100.00;100673.47;5290205;28;20953;-69
2023/08/25 07:51:11;;;;;;;25.40;16.45;;;;;;;19.18;100.00;100674.19;5291483;28;20504;-68
2023/08/25 07:53:43;;;;;;;54.80;19.30;;;;;;;19.21;100.00;100660.31;5291757;28;20020;-67
2023/08/25 07:56:14;;;;;;;31.83;17.13;;;;;;;19.13;100.00;100663.06;5287846;28;20051;-67
2023/08/25 07:58:46;;;;;;;29.48;17.30;;;;;;;19.16;100.00;100657.31;5290838;28;20085;-67
2023/08/25 08:01:17;;;;;;;34.47;18.48;;;;;;;19.11;100.00;100660.53;5294234;28;20127;-67
2023/08/25 08:03:50;;;;;;;43.00;19.10;;;;;;;19.17;100.00;100658.97;5294841;28;20033;-67
2023/08/25 08:06:22;;;;;;;24.85;17.33;;;;;;;19.09;100.00;100656.34;5289209;28;20024;-66
2023/08/25 08:08:53;;;;;;;20.83;16.13;;;;;;;19.12;100.00;100674.88;5291324;28;20047;-66
2023/08/25 08:11:25;;;;;;;23.25;17.45;;;;;;;19.10;100.00;100680.50;5292289;28;20039;-66
2023/08/25 08:13:56;;;;;;;25.27;17.73;;;;;;;19.12;100.00;100683.00;5289200;28;20034;-66
2023/08/25 08:16:29;;;;;;;23.75;18.27;;;;;;;19.10;100.00;100671.50;5290035;28;20024;-66
2023/08/25 08:19:00;;;;;;;22.63;16.65;;;;;;;19.19;100.00;100675.88;5293587;28;20020;-66
2023/08/25 08:21:31;;;;;;;22.40;15.63;;;;;;;19.09;100.00;100648.22;5285032;28;20038;-66
2023/08/25 08:24:03;;;;;;;23.75;16.67;;;;;;;19.19;100.00;100644.28;5275523;28;20091;-66
2023/08/25 08:26:36;;;;;;;26.33;17.50;;;;;;;19.20;100.00;100651.34;5292327;28;20027;-65
2023/08/25 08:29:08;;;;;;;24.15;17.85;;;;;;;19.08;100.00;100650.09;5291132;28;21836;-65
2023/08/25 08:31:40;;;;;;;23.85;17.88;;;;;;;19.10;100.00;100652.59;5284683;28;20113;-65
2023/08/25 08:34:11;;;;;;;22.02;17.88;;;;;;;19.01;100.00;100635.59;5291207;28;20462;-65
2023/08/25 08:36:43;;;;;;;26.00;18.77;;;;;;;19.16;100.00;100655.44;5287911;28;20056;-65
2023/08/25 08:39:15;;;;;;;28.83;19.05;;;;;;;19.16;100.00;100679.78;5290965;28;20038;-65
2023/08/25 08:41:47;;;;;;;22.13;18.27;;;;;;;19.24;100.00;100678.88;5287422;28;20151;-65
2023/08/25 08:44:19;;;;;;;24.52;18.92;;;;;;;19.18;100.00;100676.91;5291541;28;20023;-65
